sensor_id;sensor_type;location;lat;lon;timestamp;P1;durP1;ratioP1;P2;durP2;ratioP2
18265;SDS011;9259;48.194;16.322;2022-09-21T00:01:10;3.97;;;1.53;;
18265;SDS011;9259;48.194;16.322;2022-09-21T00:03:39;2.50;;;1.47;;
18265;SDS011;9259;48.194;16.322;2022-09-21T00:06:08;3.13;;;1.67;;
18265;SDS011;9259;48.194;16.322;2022-09-21T00:08:37;3.20;;;1.40;;
18265;SDS011;9259;48.194;16.322;2022-09-21T00:11:06;3.03;;;1.57;;
18265;SDS011;9259;48.194;16.322;2022-09-21T00:13:37;7.63;;;1.50;;
18265;SDS011;9259;48.194;16.322;2022-09-21T00:16:05;3.17;;;1.43;;
18265;SDS011;9259;48.194;16.322;2022-09-21T00:18:34;2.27;;;1.50;;
18265;SDS011;9259;48.194;16.322;2022-09-21T00:21:05;2.77;;;1.53;;
18265;SDS011;9259;48.194;16.322;2022-09-21T00:23:33;4.30;;;1.57;;
18265;SDS011;9259;48.194;16.322;2022-09-21T00:26:07;3.63;;;1.50;;
18265;SDS011;9259;48.194;16.322;2022-09-21T00:28:36;5.00;;;1.67;;
18265;SDS011;9259;48.194;16.322;2022-09-21T00:31:06;2.43;;;1.63;;
18265;SDS011;9259;48.194;16.322;2022-09-21T00:33:36;4.77;;;1.50;;
18265;SDS011;9259;48.194;16.322;2022-09-21T00:36:06;3.50;;;1.80;;
18265;SDS011;9259;48.194;16.322;2022-09-21T00:38:35;3.87;;;1.37;;
18265;SDS011;9259;48.194;16.322;2022-09-21T00:41:04;3.43;;;1.67;;
18265;SDS011;9259;48.194;16.322;2022-09-21T00:43:34;4.43;;;1.70;;
18265;SDS011;9259;48.194;16.322;2022-09-21T00:46:04;6.70;;;1.73;;
18265;SDS011;9259;48.194;16.322;2022-09-21T00:48:36;2.63;;;1.60;;
18265;SDS011;9259;48.194;16.322;2022-09-21T00:51:05;4.07;;;1.60;;
18265;SDS011;9259;48.194;16.322;2022-09-21T00:53:34;3.40;;;2.00;;
18265;SDS011;9259;48.194;16.322;2022-09-21T00:56:03;7.27;;;1.87;;
18265;SDS011;9259;48.194;16.322;2022-09-21T00:58:34;4.83;;;1.80;;
18265;SDS011;9259;48.194;16.322;2022-09-21T01:01:07;5.83;;;1.67;;
18265;SDS011;9259;48.194;16.322;2022-09-21T01:03:36;3.77;;;2.00;;
18265;SDS011;9259;48.194;16.322;2022-09-21T01:06:10;3.90;;;1.80;;
18265;SDS011;9259;48.194;16.322;2022-09-21T01:08:38;4.57;;;1.97;;
18265;SDS011;9259;48.194;16.322;2022-09-21T01:11:11;4.27;;;1.73;;
18265;SDS011;9259;48.194;16.322;2022-09-21T01:13:54;4.70;;;2.00;;
18265;SDS011;9259;48.194;16.322;2022-09-21T01:16:41;3.70;;;1.80;;
18265;SDS011;9259;48.194;16.322;2022-09-21T01:19:24;5.23;;;2.10;;
18265;SDS011;9259;48.194;16.322;2022-09-21T01:22:12;4.10;;;1.80;;
18265;SDS011;9259;48.194;16.322;2022-09-21T01:24:48;4.77;;;2.17;;
18265;SDS011;9259;48.194;16.322;2022-09-21T01:27:30;3.83;;;2.00;;
18265;SDS011;9259;48.194;16.322;2022-09-21T01:30:06;2.73;;;1.80;;
18265;SDS011;9259;48.194;16.322;2022-09-21T01:32:37;3.87;;;2.00;;
18265;SDS011;9259;48.194;16.322;2022-09-21T01:35:08;3.33;;;1.67;;
18265;SDS011;9259;48.194;16.322;2022-09-21T01:37:40;4.40;;;1.80;;
18265;SDS011;9259;48.194;16.322;2022-09-21T01:40:11;4.80;;;2.20;;
18265;SDS011;9259;48.194;16.322;2022-09-21T01:42:40;4.73;;;1.90;;
18265;SDS011;9259;48.194;16.322;2022-09-21T01:45:11;4.30;;;1.70;;
18265;SDS011;9259;48.194;16.322;2022-09-21T01:47:42;4.97;;;1.77;;
18265;SDS011;9259;48.194;16.322;2022-09-21T01:50:13;4.20;;;1.83;;
18265;SDS011;9259;48.194;16.322;2022-09-21T01:52:44;3.40;;;2.03;;
18265;SDS011;9259;48.194;16.322;2022-09-21T01:55:17;4.90;;;1.80;;
18265;SDS011;9259;48.194;16.322;2022-09-21T01:57:48;3.47;;;1.97;;
18265;SDS011;9259;48.194;16.322;2022-09-21T02:00:22;5.00;;;1.77;;
18265;SDS011;9259;48.194;16.322;2022-09-21T02:02:51;4.13;;;2.13;;
18265;SDS011;9259;48.194;16.322;2022-09-21T02:05:23;5.17;;;2.00;;
18265;SDS011;9259;48.194;16.322;2022-09-21T02:07:52;6.43;;;2.00;;
18265;SDS011;9259;48.194;16.322;2022-09-21T02:10:21;5.73;;;2.23;;
18265;SDS011;9259;48.194;16.322;2022-09-21T02:12:52;3.53;;;2.20;;
18265;SDS011;9259;48.194;16.322;2022-09-21T02:15:23;3.63;;;1.90;;
18265;SDS011;9259;48.194;16.322;2022-09-21T02:17:58;5.13;;;1.73;;
18265;SDS011;9259;48.194;16.322;2022-09-21T02:20:30;6.83;;;2.03;;
18265;SDS011;9259;48.194;16.322;2022-09-21T02:23:02;2.80;;;1.60;;
18265;SDS011;9259;48.194;16.322;2022-09-21T02:25:38;3.43;;;1.90;;
18265;SDS011;9259;48.194;16.322;2022-09-21T02:28:14;3.00;;;1.70;;
18265;SDS011;9259;48.194;16.322;2022-09-21T02:30:50;3.03;;;1.50;;
18265;SDS011;9259;48.194;16.322;2022-09-21T02:33:23;5.17;;;2.10;;
18265;SDS011;9259;48.194;16.322;2022-09-21T02:35:54;5.87;;;1.90;;
18265;SDS011;9259;48.194;16.322;2022-09-21T02:38:28;2.73;;;1.60;;
18265;SDS011;9259;48.194;16.322;2022-09-21T02:41:01;4.67;;;1.80;;
18265;SDS011;9259;48.194;16.322;2022-09-21T02:43:33;3.73;;;1.50;;
18265;SDS011;9259;48.194;16.322;2022-09-21T02:46:07;3.90;;;2.00;;
18265;SDS011;9259;48.194;16.322;2022-09-21T02:48:39;4.20;;;1.63;;
18265;SDS011;9259;48.194;16.322;2022-09-21T02:51:10;3.83;;;1.80;;
18265;SDS011;9259;48.194;16.322;2022-09-21T02:53:41;7.47;;;2.07;;
18265;SDS011;9259;48.194;16.322;2022-09-21T02:56:09;3.17;;;1.50;;
18265;SDS011;9259;48.194;16.322;2022-09-21T02:58:42;3.23;;;2.17;;
18265;SDS011;9259;48.194;16.322;2022-09-21T03:01:14;3.23;;;1.60;;
18265;SDS011;9259;48.194;16.322;2022-09-21T03:03:43;3.63;;;1.60;;
18265;SDS011;9259;48.194;16.322;2022-09-21T03:06:11;3.57;;;1.70;;
18265;SDS011;9259;48.194;16.322;2022-09-21T03:08:39;4.00;;;1.50;;
18265;SDS011;9259;48.194;16.322;2022-09-21T03:11:07;2.67;;;1.97;;
18265;SDS011;9259;48.194;16.322;2022-09-21T03:13:36;5.20;;;1.60;;
18265;SDS011;9259;48.194;16.322;2022-09-21T03:16:04;3.13;;;1.90;;
18265;SDS011;9259;48.194;16.322;2022-09-21T03:18:34;5.60;;;1.90;;
18265;SDS011;9259;48.194;16.322;2022-09-21T03:21:04;5.23;;;2.23;;
18265;SDS011;9259;48.194;16.322;2022-09-21T03:23:32;3.33;;;1.90;;
18265;SDS011;9259;48.194;16.322;2022-09-21T03:26:00;2.90;;;1.70;;
18265;SDS011;9259;48.194;16.322;2022-09-21T03:28:28;3.63;;;2.00;;
18265;SDS011;9259;48.194;16.322;2022-09-21T03:30:56;6.03;;;1.97;;
18265;SDS011;9259;48.194;16.322;2022-09-21T03:33:24;4.57;;;1.90;;
18265;SDS011;9259;48.194;16.322;2022-09-21T03:35:53;5.80;;;1.70;;
18265;SDS011;9259;48.194;16.322;2022-09-21T03:38:21;3.37;;;1.87;;
18265;SDS011;9259;48.194;16.322;2022-09-21T03:40:51;3.47;;;1.83;;
18265;SDS011;9259;48.194;16.322;2022-09-21T03:43:23;4.20;;;1.93;;
18265;SDS011;9259;48.194;16.322;2022-09-21T03:45:51;5.13;;;2.33;;
18265;SDS011;9259;48.194;16.322;2022-09-21T03:48:19;5.37;;;2.13;;
18265;SDS011;9259;48.194;16.322;2022-09-21T03:50:47;3.73;;;1.93;;
18265;SDS011;9259;48.194;16.322;2022-09-21T03:53:31;6.67;;;2.60;;
18265;SDS011;9259;48.194;16.322;2022-09-21T03:55:59;6.07;;;2.60;;
18265;SDS011;9259;48.194;16.322;2022-09-21T03:58:28;3.27;;;2.57;;
18265;SDS011;9259;48.194;16.322;2022-09-21T04:00:59;3.67;;;2.37;;
18265;SDS011;9259;48.194;16.322;2022-09-21T04:03:28;6.40;;;2.80;;
18265;SDS011;9259;48.194;16.322;2022-09-21T04:05:56;5.77;;;2.67;;
18265;SDS011;9259;48.194;16.322;2022-09-21T04:08:24;6.43;;;2.70;;
18265;SDS011;9259;48.194;16.322;2022-09-21T04:10:53;3.93;;;2.57;;
18265;SDS011;9259;48.194;16.322;2022-09-21T04:13:21;5.83;;;3.20;;
18265;SDS011;9259;48.194;16.322;2022-09-21T04:15:49;6.03;;;2.90;;
18265;SDS011;9259;48.194;16.322;2022-09-21T04:18:17;9.63;;;3.10;;
18265;SDS011;9259;48.194;16.322;2022-09-21T04:20:45;6.27;;;3.63;;
18265;SDS011;9259;48.194;16.322;2022-09-21T04:23:13;5.50;;;3.60;;
18265;SDS011;9259;48.194;16.322;2022-09-21T04:25:42;6.77;;;3.97;;
18265;SDS011;9259;48.194;16.322;2022-09-21T04:28:12;6.07;;;3.83;;
18265;SDS011;9259;48.194;16.322;2022-09-21T04:30:40;7.37;;;3.60;;
18265;SDS011;9259;48.194;16.322;2022-09-21T04:33:08;7.10;;;3.50;;
18265;SDS011;9259;48.194;16.322;2022-09-21T04:35:36;5.80;;;3.37;;
18265;SDS011;9259;48.194;16.322;2022-09-21T04:38:05;7.20;;;3.80;;
18265;SDS011;9259;48.194;16.322;2022-09-21T04:40:33;7.07;;;4.23;;
18265;SDS011;9259;48.194;16.322;2022-09-21T04:43:01;6.83;;;4.20;;
18265;SDS011;9259;48.194;16.322;2022-09-21T04:45:30;6.57;;;4.60;;
18265;SDS011;9259;48.194;16.322;2022-09-21T04:47:59;7.63;;;4.57;;
18265;SDS011;9259;48.194;16.322;2022-09-21T04:50:27;6.60;;;4.53;;
18265;SDS011;9259;48.194;16.322;2022-09-21T04:52:55;6.77;;;4.17;;
18265;SDS011;9259;48.194;16.322;2022-09-21T04:55:23;9.03;;;4.73;;
18265;SDS011;9259;48.194;16.322;2022-09-21T04:57:51;8.27;;;4.60;;
18265;SDS011;9259;48.194;16.322;2022-09-21T05:00:20;10.33;;;5.57;;
18265;SDS011;9259;48.194;16.322;2022-09-21T05:02:49;8.03;;;4.73;;
18265;SDS011;9259;48.194;16.322;2022-09-21T05:05:17;7.47;;;4.70;;
18265;SDS011;9259;48.194;16.322;2022-09-21T05:07:45;7.20;;;4.50;;
18265;SDS011;9259;48.194;16.322;2022-09-21T05:10:13;8.03;;;5.37;;
18265;SDS011;9259;48.194;16.322;2022-09-21T05:12:41;8.67;;;4.90;;
18265;SDS011;9259;48.194;16.322;2022-09-21T05:15:09;7.60;;;4.63;;
18265;SDS011;9259;48.194;16.322;2022-09-21T05:17:37;7.67;;;4.40;;
18265;SDS011;9259;48.194;16.322;2022-09-21T05:20:08;10.33;;;4.87;;
18265;SDS011;9259;48.194;16.322;2022-09-21T05:22:36;6.90;;;4.60;;
18265;SDS011;9259;48.194;16.322;2022-09-21T05:25:05;9.70;;;4.77;;
18265;SDS011;9259;48.194;16.322;2022-09-21T05:27:34;8.53;;;4.60;;
18265;SDS011;9259;48.194;16.322;2022-09-21T05:30:02;7.87;;;4.73;;
18265;SDS011;9259;48.194;16.322;2022-09-21T05:32:36;8.80;;;5.03;;
18265;SDS011;9259;48.194;16.322;2022-09-21T05:35:14;10.70;;;4.30;;
18265;SDS011;9259;48.194;16.322;2022-09-21T05:37:50;10.13;;;4.57;;
18265;SDS011;9259;48.194;16.322;2022-09-21T05:40:21;9.33;;;4.30;;
18265;SDS011;9259;48.194;16.322;2022-09-21T05:42:50;6.73;;;4.03;;
18265;SDS011;9259;48.194;16.322;2022-09-21T05:45:18;7.77;;;4.13;;
18265;SDS011;9259;48.194;16.322;2022-09-21T05:47:49;7.47;;;3.87;;
18265;SDS011;9259;48.194;16.322;2022-09-21T05:50:27;7.97;;;4.13;;
18265;SDS011;9259;48.194;16.322;2022-09-21T05:53:03;5.73;;;3.70;;
18265;SDS011;9259;48.194;16.322;2022-09-21T05:55:43;8.57;;;3.90;;
18265;SDS011;9259;48.194;16.322;2022-09-21T05:58:19;7.27;;;3.80;;
18265;SDS011;9259;48.194;16.322;2022-09-21T06:00:52;6.90;;;3.50;;
18265;SDS011;9259;48.194;16.322;2022-09-21T06:03:28;11.90;;;3.90;;
18265;SDS011;9259;48.194;16.322;2022-09-21T06:05:58;8.40;;;3.90;;
18265;SDS011;9259;48.194;16.322;2022-09-21T06:08:26;9.33;;;3.90;;
18265;SDS011;9259;48.194;16.322;2022-09-21T06:10:54;5.90;;;3.47;;
18265;SDS011;9259;48.194;16.322;2022-09-21T06:13:23;7.13;;;3.63;;
18265;SDS011;9259;48.194;16.322;2022-09-21T06:15:51;8.27;;;3.57;;
18265;SDS011;9259;48.194;16.322;2022-09-21T06:18:19;4.93;;;3.03;;
18265;SDS011;9259;48.194;16.322;2022-09-21T06:20:47;5.20;;;3.30;;
18265;SDS011;9259;48.194;16.322;2022-09-21T06:23:16;5.93;;;3.40;;
18265;SDS011;9259;48.194;16.322;2022-09-21T06:25:49;4.80;;;3.40;;
18265;SDS011;9259;48.194;16.322;2022-09-21T06:28:18;6.17;;;3.50;;
18265;SDS011;9259;48.194;16.322;2022-09-21T06:30:49;6.10;;;3.60;;
18265;SDS011;9259;48.194;16.322;2022-09-21T06:33:17;7.97;;;3.60;;
18265;SDS011;9259;48.194;16.322;2022-09-21T06:35:51;7.27;;;4.10;;
18265;SDS011;9259;48.194;16.322;2022-09-21T06:38:21;8.40;;;3.80;;
18265;SDS011;9259;48.194;16.322;2022-09-21T06:40:49;8.63;;;3.50;;
18265;SDS011;9259;48.194;16.322;2022-09-21T06:43:18;8.07;;;4.03;;
18265;SDS011;9259;48.194;16.322;2022-09-21T06:45:51;9.73;;;4.50;;
18265;SDS011;9259;48.194;16.322;2022-09-21T06:48:20;8.03;;;3.90;;
18265;SDS011;9259;48.194;16.322;2022-09-21T06:50:48;8.00;;;3.80;;
18265;SDS011;9259;48.194;16.322;2022-09-21T06:53:17;6.10;;;3.47;;
18265;SDS011;9259;48.194;16.322;2022-09-21T06:55:46;6.67;;;3.20;;
18265;SDS011;9259;48.194;16.322;2022-09-21T06:58:14;5.00;;;3.47;;
18265;SDS011;9259;48.194;16.322;2022-09-21T07:00:42;6.83;;;3.60;;
18265;SDS011;9259;48.194;16.322;2022-09-21T07:03:11;5.20;;;2.77;;
18265;SDS011;9259;48.194;16.322;2022-09-21T07:05:39;8.17;;;3.33;;
18265;SDS011;9259;48.194;16.322;2022-09-21T07:08:10;8.00;;;3.47;;
18265;SDS011;9259;48.194;16.322;2022-09-21T07:10:38;6.17;;;3.10;;
18265;SDS011;9259;48.194;16.322;2022-09-21T07:13:07;12.77;;;3.40;;
18265;SDS011;9259;48.194;16.322;2022-09-21T07:15:35;5.03;;;2.90;;
18265;SDS011;9259;48.194;16.322;2022-09-21T07:18:09;5.00;;;2.80;;
18265;SDS011;9259;48.194;16.322;2022-09-21T07:20:38;5.83;;;2.63;;
18265;SDS011;9259;48.194;16.322;2022-09-21T07:23:10;5.73;;;2.83;;
18265;SDS011;9259;48.194;16.322;2022-09-21T07:25:39;5.43;;;2.80;;
18265;SDS011;9259;48.194;16.322;2022-09-21T07:28:10;7.93;;;2.90;;
18265;SDS011;9259;48.194;16.322;2022-09-21T07:30:40;6.27;;;2.73;;
18265;SDS011;9259;48.194;16.322;2022-09-21T07:33:08;4.70;;;2.40;;
18265;SDS011;9259;48.194;16.322;2022-09-21T07:35:36;5.30;;;2.57;;
18265;SDS011;9259;48.194;16.322;2022-09-21T07:38:04;4.40;;;2.70;;
18265;SDS011;9259;48.194;16.322;2022-09-21T07:40:33;5.67;;;2.40;;
18265;SDS011;9259;48.194;16.322;2022-09-21T07:43:02;4.67;;;2.27;;
18265;SDS011;9259;48.194;16.322;2022-09-21T07:45:31;3.93;;;2.20;;
18265;SDS011;9259;48.194;16.322;2022-09-21T07:48:01;4.20;;;2.40;;
18265;SDS011;9259;48.194;16.322;2022-09-21T07:50:30;4.30;;;2.77;;
18265;SDS011;9259;48.194;16.322;2022-09-21T07:52:59;5.33;;;2.63;;
18265;SDS011;9259;48.194;16.322;2022-09-21T07:55:27;5.87;;;2.60;;
18265;SDS011;9259;48.194;16.322;2022-09-21T07:57:55;3.67;;;2.63;;
18265;SDS011;9259;48.194;16.322;2022-09-21T08:00:42;5.63;;;3.13;;
18265;SDS011;9259;48.194;16.322;2022-09-21T08:03:10;7.87;;;3.33;;
18265;SDS011;9259;48.194;16.322;2022-09-21T08:05:38;3.93;;;3.13;;
18265;SDS011;9259;48.194;16.322;2022-09-21T08:08:06;5.43;;;3.10;;
18265;SDS011;9259;48.194;16.322;2022-09-21T08:10:34;5.40;;;2.60;;
18265;SDS011;9259;48.194;16.322;2022-09-21T08:13:04;5.38;;;2.70;;
18265;SDS011;9259;48.194;16.322;2022-09-21T08:15:32;6.68;;;3.10;;
18265;SDS011;9259;48.194;16.322;2022-09-21T08:18:02;4.05;;;2.80;;
18265;SDS011;9259;48.194;16.322;2022-09-21T08:20:31;5.70;;;3.63;;
18265;SDS011;9259;48.194;16.322;2022-09-21T08:23:00;6.70;;;3.73;;
18265;SDS011;9259;48.194;16.322;2022-09-21T08:25:28;5.73;;;3.37;;
18265;SDS011;9259;48.194;16.322;2022-09-21T08:27:57;5.40;;;3.47;;
18265;SDS011;9259;48.194;16.322;2022-09-21T08:30:25;4.80;;;3.17;;
18265;SDS011;9259;48.194;16.322;2022-09-21T08:32:55;5.05;;;3.00;;
18265;SDS011;9259;48.194;16.322;2022-09-21T08:35:25;5.17;;;3.13;;
18265;SDS011;9259;48.194;16.322;2022-09-21T08:37:53;5.43;;;3.17;;
18265;SDS011;9259;48.194;16.322;2022-09-21T08:40:21;4.18;;;2.58;;
18265;SDS011;9259;48.194;16.322;2022-09-21T08:42:51;8.52;;;3.20;;
18265;SDS011;9259;48.194;16.322;2022-09-21T08:45:24;3.75;;;2.67;;
18265;SDS011;9259;48.194;16.322;2022-09-21T08:47:57;4.45;;;2.85;;
18265;SDS011;9259;48.194;16.322;2022-09-21T08:50:32;9.20;;;3.03;;
18265;SDS011;9259;48.194;16.322;2022-09-21T08:53:03;4.47;;;2.50;;
18265;SDS011;9259;48.194;16.322;2022-09-21T08:55:32;3.80;;;2.33;;
18265;SDS011;9259;48.194;16.322;2022-09-21T08:58:01;2.70;;;1.90;;
18265;SDS011;9259;48.194;16.322;2022-09-21T09:00:31;4.85;;;2.65;;
18265;SDS011;9259;48.194;16.322;2022-09-21T09:03:15;4.50;;;2.22;;
18265;SDS011;9259;48.194;16.322;2022-09-21T09:05:58;6.40;;;2.78;;
18265;SDS011;9259;48.194;16.322;2022-09-21T09:11:17;4.72;;;2.47;;
18265;SDS011;9259;48.194;16.322;2022-09-21T09:16:43;3.53;;;2.42;;
18265;SDS011;9259;48.194;16.322;2022-09-21T09:19:17;7.97;;;2.40;;
18265;SDS011;9259;48.194;16.322;2022-09-21T09:21:49;5.50;;;2.00;;
18265;SDS011;9259;48.194;16.322;2022-09-21T09:24:23;4.40;;;2.38;;
18265;SDS011;9259;48.194;16.322;2022-09-21T09:27:02;3.30;;;2.22;;
18265;SDS011;9259;48.194;16.322;2022-09-21T09:29:38;3.38;;;2.05;;
18265;SDS011;9259;48.194;16.322;2022-09-21T09:32:14;3.38;;;1.90;;
18265;SDS011;9259;48.194;16.322;2022-09-21T09:34:44;3.17;;;1.92;;
18265;SDS011;9259;48.194;16.322;2022-09-21T09:37:20;4.88;;;2.20;;
18265;SDS011;9259;48.194;16.322;2022-09-21T09:39:53;4.95;;;1.90;;
18265;SDS011;9259;48.194;16.322;2022-09-21T09:42:31;2.63;;;1.88;;
18265;SDS011;9259;48.194;16.322;2022-09-21T09:45:16;5.15;;;2.20;;
18265;SDS011;9259;48.194;16.322;2022-09-21T09:48:07;5.80;;;2.30;;
18265;SDS011;9259;48.194;16.322;2022-09-21T09:50:42;3.75;;;2.00;;
18265;SDS011;9259;48.194;16.322;2022-09-21T09:53:12;5.00;;;2.13;;
18265;SDS011;9259;48.194;16.322;2022-09-21T09:55:42;2.92;;;2.05;;
18265;SDS011;9259;48.194;16.322;2022-09-21T09:58:16;3.55;;;2.10;;
18265;SDS011;9259;48.194;16.322;2022-09-21T10:00:46;3.33;;;1.98;;
18265;SDS011;9259;48.194;16.322;2022-09-21T10:03:18;3.00;;;1.50;;
18265;SDS011;9259;48.194;16.322;2022-09-21T10:05:49;3.33;;;1.70;;
18265;SDS011;9259;48.194;16.322;2022-09-21T10:08:39;2.90;;;1.52;;
18265;SDS011;9259;48.194;16.322;2022-09-21T10:11:11;4.30;;;1.80;;
18265;SDS011;9259;48.194;16.322;2022-09-21T10:13:40;4.28;;;2.10;;
18265;SDS011;9259;48.194;16.322;2022-09-21T10:16:11;2.83;;;1.90;;
18265;SDS011;9259;48.194;16.322;2022-09-21T10:18:43;2.03;;;1.50;;
18265;SDS011;9259;48.194;16.322;2022-09-21T10:21:16;2.13;;;1.50;;
18265;SDS011;9259;48.194;16.322;2022-09-21T10:23:49;3.00;;;1.63;;
18265;SDS011;9259;48.194;16.322;2022-09-21T10:26:19;4.20;;;2.25;;
18265;SDS011;9259;48.194;16.322;2022-09-21T10:28:54;3.97;;;1.83;;
18265;SDS011;9259;48.194;16.322;2022-09-21T10:31:24;4.70;;;1.70;;
18265;SDS011;9259;48.194;16.322;2022-09-21T10:34:04;3.70;;;1.95;;
18265;SDS011;9259;48.194;16.322;2022-09-21T10:36:34;3.15;;;1.40;;
18265;SDS011;9259;48.194;16.322;2022-09-21T10:39:14;3.05;;;1.20;;
18265;SDS011;9259;48.194;16.322;2022-09-21T10:41:48;3.17;;;1.70;;
18265;SDS011;9259;48.194;16.322;2022-09-21T10:44:18;4.13;;;1.42;;
18265;SDS011;9259;48.194;16.322;2022-09-21T10:46:48;5.07;;;1.48;;
18265;SDS011;9259;48.194;16.322;2022-09-21T10:49:19;3.70;;;1.30;;
18265;SDS011;9259;48.194;16.322;2022-09-21T10:51:50;3.60;;;1.33;;
18265;SDS011;9259;48.194;16.322;2022-09-21T10:54:26;2.42;;;1.17;;
18265;SDS011;9259;48.194;16.322;2022-09-21T10:56:56;2.22;;;1.20;;
18265;SDS011;9259;48.194;16.322;2022-09-21T10:59:26;3.47;;;1.33;;
18265;SDS011;9259;48.194;16.322;2022-09-21T11:01:56;2.97;;;1.10;;
18265;SDS011;9259;48.194;16.322;2022-09-21T11:04:36;2.78;;;1.02;;
18265;SDS011;9259;48.194;16.322;2022-09-21T11:07:15;3.83;;;1.20;;
18265;SDS011;9259;48.194;16.322;2022-09-21T11:09:47;5.75;;;1.90;;
18265;SDS011;9259;48.194;16.322;2022-09-21T11:12:28;3.17;;;1.58;;
18265;SDS011;9259;48.194;16.322;2022-09-21T11:15:03;2.13;;;1.73;;
18265;SDS011;9259;48.194;16.322;2022-09-21T11:17:39;5.20;;;1.85;;
18265;SDS011;9259;48.194;16.322;2022-09-21T11:20:16;4.45;;;1.90;;
18265;SDS011;9259;48.194;16.322;2022-09-21T11:22:50;5.38;;;2.08;;
18265;SDS011;9259;48.194;16.322;2022-09-21T11:25:27;5.35;;;2.30;;
18265;SDS011;9259;48.194;16.322;2022-09-21T11:28:03;4.50;;;2.13;;
18265;SDS011;9259;48.194;16.322;2022-09-21T11:30:41;2.47;;;1.50;;
18265;SDS011;9259;48.194;16.322;2022-09-21T11:33:30;3.30;;;1.73;;
18265;SDS011;9259;48.194;16.322;2022-09-21T11:36:06;2.95;;;1.80;;
18265;SDS011;9259;48.194;16.322;2022-09-21T11:38:39;1.95;;;1.50;;
18265;SDS011;9259;48.194;16.322;2022-09-21T11:41:23;2.90;;;1.77;;
18265;SDS011;9259;48.194;16.322;2022-09-21T11:44:15;3.33;;;1.90;;
18265;SDS011;9259;48.194;16.322;2022-09-21T11:46:55;3.10;;;1.92;;
18265;SDS011;9259;48.194;16.322;2022-09-21T11:49:34;3.30;;;1.88;;
18265;SDS011;9259;48.194;16.322;2022-09-21T11:52:15;4.05;;;1.50;;
18265;SDS011;9259;48.194;16.322;2022-09-21T11:54:59;3.28;;;1.50;;
18265;SDS011;9259;48.194;16.322;2022-09-21T11:57:36;5.88;;;1.88;;
18265;SDS011;9259;48.194;16.322;2022-09-21T12:00:09;2.95;;;1.50;;
18265;SDS011;9259;48.194;16.322;2022-09-21T12:05:35;3.70;;;1.50;;
18265;SDS011;9259;48.194;16.322;2022-09-21T12:08:12;4.10;;;1.63;;
18265;SDS011;9259;48.194;16.322;2022-09-21T12:10:54;2.47;;;1.42;;
18265;SDS011;9259;48.194;16.322;2022-09-21T12:13:28;4.18;;;1.75;;
18265;SDS011;9259;48.194;16.322;2022-09-21T12:16:02;5.13;;;1.67;;
18265;SDS011;9259;48.194;16.322;2022-09-21T12:18:38;3.90;;;1.20;;
18265;SDS011;9259;48.194;16.322;2022-09-21T12:21:14;2.10;;;1.20;;
18265;SDS011;9259;48.194;16.322;2022-09-21T12:23:45;2.35;;;1.50;;
18265;SDS011;9259;48.194;16.322;2022-09-21T12:26:15;3.83;;;1.25;;
18265;SDS011;9259;48.194;16.322;2022-09-21T12:28:48;3.92;;;1.40;;
18265;SDS011;9259;48.194;16.322;2022-09-21T12:31:18;2.80;;;1.23;;
18265;SDS011;9259;48.194;16.322;2022-09-21T12:33:50;2.80;;;1.55;;
18265;SDS011;9259;48.194;16.322;2022-09-21T12:36:20;4.07;;;1.30;;
18265;SDS011;9259;48.194;16.322;2022-09-21T12:38:53;2.75;;;1.45;;
18265;SDS011;9259;48.194;16.322;2022-09-21T12:41:27;2.90;;;1.65;;
18265;SDS011;9259;48.194;16.322;2022-09-21T12:44:04;3.33;;;1.35;;
18265;SDS011;9259;48.194;16.322;2022-09-21T12:46:42;2.75;;;1.40;;
18265;SDS011;9259;48.194;16.322;2022-09-21T12:49:13;2.90;;;1.17;;
18265;SDS011;9259;48.194;16.322;2022-09-21T12:51:44;3.13;;;1.13;;
18265;SDS011;9259;48.194;16.322;2022-09-21T12:54:17;1.23;;;0.82;;
18265;SDS011;9259;48.194;16.322;2022-09-21T12:56:50;1.80;;;1.00;;
18265;SDS011;9259;48.194;16.322;2022-09-21T12:59:28;3.65;;;1.10;;
18265;SDS011;9259;48.194;16.322;2022-09-21T13:02:04;4.75;;;1.25;;
18265;SDS011;9259;48.194;16.322;2022-09-21T13:04:42;2.42;;;1.10;;
18265;SDS011;9259;48.194;16.322;2022-09-21T13:10:30;2.35;;;1.00;;
18265;SDS011;9259;48.194;16.322;2022-09-21T13:13:16;3.45;;;1.00;;
18265;SDS011;9259;48.194;16.322;2022-09-21T13:15:50;1.48;;;1.05;;
18265;SDS011;9259;48.194;16.322;2022-09-21T13:18:21;1.58;;;1.08;;
18265;SDS011;9259;48.194;16.322;2022-09-21T13:20:50;3.88;;;1.20;;
18265;SDS011;9259;48.194;16.322;2022-09-21T13:23:21;3.42;;;1.50;;
18265;SDS011;9259;48.194;16.322;2022-09-21T13:25:59;4.57;;;1.20;;
18265;SDS011;9259;48.194;16.322;2022-09-21T13:28:39;1.90;;;1.27;;
18265;SDS011;9259;48.194;16.322;2022-09-21T13:34:23;3.60;;;1.35;;
18265;SDS011;9259;48.194;16.322;2022-09-21T13:43:16;3.25;;;1.65;;
18265;SDS011;9259;48.194;16.322;2022-09-21T13:45:50;2.78;;;1.40;;
18265;SDS011;9259;48.194;16.322;2022-09-21T13:48:22;5.32;;;1.60;;
18265;SDS011;9259;48.194;16.322;2022-09-21T13:50:56;2.80;;;1.58;;
18265;SDS011;9259;48.194;16.322;2022-09-21T13:53:28;3.50;;;1.40;;
18265;SDS011;9259;48.194;16.322;2022-09-21T13:56:00;2.85;;;1.38;;
18265;SDS011;9259;48.194;16.322;2022-09-21T13:58:35;1.75;;;1.33;;
18265;SDS011;9259;48.194;16.322;2022-09-21T14:01:12;4.30;;;1.30;;
18265;SDS011;9259;48.194;16.322;2022-09-21T14:03:45;2.75;;;1.42;;
18265;SDS011;9259;48.194;16.322;2022-09-21T14:06:19;3.35;;;1.33;;
18265;SDS011;9259;48.194;16.322;2022-09-21T14:08:50;2.88;;;1.50;;
18265;SDS011;9259;48.194;16.322;2022-09-21T14:11:22;4.07;;;1.40;;
18265;SDS011;9259;48.194;16.322;2022-09-21T14:13:59;2.53;;;1.30;;
18265;SDS011;9259;48.194;16.322;2022-09-21T14:16:50;2.80;;;1.58;;
18265;SDS011;9259;48.194;16.322;2022-09-21T14:22:36;1.95;;;1.30;;
18265;SDS011;9259;48.194;16.322;2022-09-21T14:25:21;2.92;;;1.52;;
18265;SDS011;9259;48.194;16.322;2022-09-21T14:27:58;3.95;;;1.40;;
18265;SDS011;9259;48.194;16.322;2022-09-21T14:30:30;3.58;;;1.60;;
18265;SDS011;9259;48.194;16.322;2022-09-21T14:33:03;3.40;;;1.40;;
18265;SDS011;9259;48.194;16.322;2022-09-21T14:35:48;4.95;;;1.88;;
18265;SDS011;9259;48.194;16.322;2022-09-21T14:38:21;2.75;;;1.40;;
18265;SDS011;9259;48.194;16.322;2022-09-21T14:40:51;1.83;;;1.40;;
18265;SDS011;9259;48.194;16.322;2022-09-21T14:43:23;1.77;;;1.08;;
18265;SDS011;9259;48.194;16.322;2022-09-21T14:46:07;2.15;;;1.20;;
18265;SDS011;9259;48.194;16.322;2022-09-21T14:48:57;3.53;;;1.30;;
18265;SDS011;9259;48.194;16.322;2022-09-21T14:51:33;3.70;;;1.38;;
18265;SDS011;9259;48.194;16.322;2022-09-21T14:54:13;2.47;;;1.40;;
18265;SDS011;9259;48.194;16.322;2022-09-21T14:56:51;2.22;;;1.40;;
18265;SDS011;9259;48.194;16.322;2022-09-21T14:59:29;6.00;;;1.73;;
18265;SDS011;9259;48.194;16.322;2022-09-21T15:02:15;3.17;;;1.63;;
18265;SDS011;9259;48.194;16.322;2022-09-21T15:04:48;5.50;;;1.90;;
18265;SDS011;9259;48.194;16.322;2022-09-21T15:07:31;2.55;;;1.58;;
18265;SDS011;9259;48.194;16.322;2022-09-21T15:10:23;2.83;;;1.67;;
18265;SDS011;9259;48.194;16.322;2022-09-21T15:13:16;6.05;;;1.70;;
18265;SDS011;9259;48.194;16.322;2022-09-21T15:15:57;2.28;;;1.40;;
18265;SDS011;9259;48.194;16.322;2022-09-21T15:18:32;2.33;;;1.75;;
18265;SDS011;9259;48.194;16.322;2022-09-21T15:21:15;2.20;;;1.50;;
18265;SDS011;9259;48.194;16.322;2022-09-21T15:23:47;4.57;;;1.85;;
18265;SDS011;9259;48.194;16.322;2022-09-21T15:26:20;7.63;;;1.70;;
18265;SDS011;9259;48.194;16.322;2022-09-21T15:28:54;4.85;;;1.77;;
18265;SDS011;9259;48.194;16.322;2022-09-21T15:31:23;4.10;;;1.80;;
18265;SDS011;9259;48.194;16.322;2022-09-21T15:33:51;3.30;;;2.00;;
18265;SDS011;9259;48.194;16.322;2022-09-21T15:36:20;5.72;;;2.20;;
18265;SDS011;9259;48.194;16.322;2022-09-21T15:38:50;3.37;;;1.97;;
18265;SDS011;9259;48.194;16.322;2022-09-21T15:41:37;2.03;;;1.60;;
18265;SDS011;9259;48.194;16.322;2022-09-21T15:44:12;3.27;;;1.70;;